Terminal Aerodrome Forecast
Issued by NWS Mt. Holly, NJ

Home | Current Version | Previous Version | Text Only | Print | Product List | Glossary On
Versions: 1 2 3 4 5 6 7 8 9 10 11 12 13 14 15 16 17 18 19 20 21 22 23
000
FTUS41 KPHI 191427 AAA
TAFPHL
TAF AMD
KPHL 191427Z 1914/2018 29010KT P6SM BKN100
     FM191700 30012KT P6SM SCT150
     FM192300 33006KT P6SM SKC
     FM201100 33008KT P6SM SCT025
     FM201600 35010G16KT P6SM SKC=

USA.gov is the U.S. government's official web portal to all federal, state and local government web resources and services.